Time;durP1;ratioP1;P1;durP2;ratioP2;P2;SDS_P1;SDS_P2;PMS_P1;PMS_P2;Temp;Humidity;BMP_temperature;BMP_pressure;BME280_temperature;BME280_humidity;BME280_pressure;Samples;Min_cycle;Max_cycle;Signal;HPM_P1;HPM_P2
2021/01/12 00:00:24;;;;;;;37.70;18.37;;;;;;;-0.29;91.66;100158.39;1741293;82;21222;-80
2021/01/12 00:02:53;;;;;;;39.88;17.15;;;;;;;-0.27;91.65;100153.86;1741842;80;21213;-80
2021/01/12 00:05:20;;;;;;;40.43;20.05;;;;;;;-0.27;91.65;100146.00;1742060;82;21169;-80
2021/01/12 00:07:47;;;;;;;37.42;18.02;;;;;;;-0.28;91.65;100150.90;1741806;82;21224;-80
2021/01/12 00:10:14;;;;;;;34.53;17.00;;;;;;;-0.29;91.64;100151.37;1729162;81;21209;-80
2021/01/12 00:12:40;;;;;;;35.03;16.55;;;;;;;-0.32;91.65;100147.66;1754363;81;21892;-81
2021/01/12 00:15:07;;;;;;;38.45;17.82;;;;;;;-0.32;91.66;100152.05;1760243;80;21179;-81
2021/01/12 00:17:34;;;;;;;36.38;17.57;;;;;;;-0.31;91.65;100152.39;1771920;80;21128;-81
2021/01/12 00:20:03;;;;;;;34.80;17.12;;;;;;;-0.30;91.69;100152.77;1772220;80;21307;-81
2021/01/12 00:22:29;;;;;;;40.60;17.75;;;;;;;-0.30;91.67;100149.69;1772303;80;21185;-81
2021/01/12 00:24:55;;;;;;;38.23;17.50;;;;;;;-0.30;91.66;100142.30;1772223;80;22102;-81
2021/01/12 00:27:23;;;;;;;36.48;17.37;;;;;;;-0.30;91.66;100141.83;1771991;80;21164;-81
2021/01/12 00:29:50;;;;;;;36.33;17.42;;;;;;;-0.29;91.67;100137.42;1771889;79;21200;-81
2021/01/12 00:32:20;;;;;;;41.23;18.17;;;;;;;-0.28;91.67;100139.11;1765617;80;21608;-81
2021/01/12 00:34:46;;;;;;;36.38;17.85;;;;;;;-0.26;91.67;100139.83;1755571;81;21535;-80
2021/01/12 00:37:19;;;;;;;32.15;16.10;;;;;;;-0.26;91.67;100134.12;1741055;82;21219;-81
2021/01/12 00:39:45;;;;;;;35.83;17.02;;;;;;;-0.26;91.67;100128.04;1740618;82;21174;-81
2021/01/12 00:42:11;;;;;;;32.50;15.68;;;;;;;-0.25;91.68;100125.80;1740649;81;21201;-81
2021/01/12 00:44:38;;;;;;;33.15;16.85;;;;;;;-0.26;91.65;100115.78;1740475;82;21187;-82
2021/01/12 00:47:06;;;;;;;42.23;18.40;;;;;;;-0.24;91.65;100112.56;1741125;82;21159;-81
2021/01/12 00:49:32;;;;;;;42.35;19.92;;;;;;;-0.22;91.67;100111.16;1740956;82;21699;-81
2021/01/12 00:52:01;;;;;;;40.63;18.48;;;;;;;-0.21;91.67;100103.67;1740460;82;21154;-81
2021/01/12 00:54:27;;;;;;;36.70;15.98;;;;;;;-0.22;91.67;100104.61;1741067;82;21134;-81
2021/01/12 00:56:54;;;;;;;32.45;16.23;;;;;;;-0.22;91.65;100101.98;1741005;82;21150;-81
2021/01/12 00:59:22;;;;;;;33.60;15.63;;;;;;;-0.23;91.66;100101.15;1713307;82;21199;-82
2021/01/12 01:01:49;;;;;;;35.90;16.05;;;;;;;-0.23;91.68;100093.76;1751138;80;21718;-82
2021/01/12 01:04:16;;;;;;;33.13;15.83;;;;;;;-0.22;91.68;100087.11;1771980;79;21255;-82
2021/01/12 01:06:43;;;;;;;32.28;16.35;;;;;;;-0.20;91.69;100084.36;1772129;79;21163;-81
2021/01/12 01:09:11;;;;;;;36.85;17.05;;;;;;;-0.20;91.69;100077.81;1775056;80;21770;-81
2021/01/12 01:11:43;;;;;;;34.83;16.77;;;;;;;-0.19;91.69;100075.56;1789577;80;21142;-81
2021/01/12 01:14:10;;;;;;;32.78;17.15;;;;;;;-0.20;91.69;100070.80;1788394;80;21260;-81
2021/01/12 01:16:37;;;;;;;33.00;16.95;;;;;;;-0.21;91.67;100066.99;1788816;80;21238;-81
2021/01/12 01:19:04;;;;;;;34.13;15.32;;;;;;;-0.22;91.68;100066.16;1762234;81;21151;-81
2021/01/12 01:21:30;;;;;;;34.90;17.10;;;;;;;-0.22;91.68;100069.24;1789215;80;21186;-81
2021/01/12 01:23:57;;;;;;;34.13;16.20;;;;;;;-0.22;91.69;100064.00;1758313;81;21610;-82
2021/01/12 01:26:23;;;;;;;32.33;15.88;;;;;;;-0.21;91.68;100055.20;1757812;80;21200;-82
2021/01/12 01:28:49;;;;;;;32.20;15.58;;;;;;;-0.23;91.69;100055.77;1781651;79;21131;-82
2021/01/12 01:31:16;;;;;;;27.10;13.95;;;;;;;-0.23;91.67;100053.98;1781905;79;21166;-82
2021/01/12 01:33:43;;;;;;;29.98;14.45;;;;;;;-0.24;91.69;100048.84;1781932;80;21628;-82
2021/01/12 01:36:10;;;;;;;28.07;14.83;;;;;;;-0.25;91.69;100041.95;1728011;83;21240;-82
2021/01/12 01:38:38;;;;;;;31.20;15.60;;;;;;;-0.25;91.68;100040.64;1760070;80;21198;-81
2021/01/12 01:41:05;;;;;;;33.67;16.57;;;;;;;-0.23;91.69;100032.19;1756536;81;21154;-81
2021/01/12 01:43:32;;;;;;;40.03;18.67;;;;;;;-0.23;91.71;100024.33;1756327;81;21211;-81
2021/01/12 01:45:59;;;;;;;35.60;17.48;;;;;;;-0.22;91.68;100017.68;1756229;81;21694;-81
2021/01/12 01:48:25;;;;;;;32.65;15.70;;;;;;;-0.22;91.69;100014.22;1756083;81;21214;-81
2021/01/12 01:50:51;;;;;;;31.02;14.35;;;;;;;-0.23;91.69;100014.69;1756766;81;21907;-81
2021/01/12 01:53:18;;;;;;;24.72;13.30;;;;;;;-0.21;91.68;99997.56;1756229;81;21248;-81
2021/01/12 01:55:44;;;;;;;29.77;15.00;;;;;;;-0.20;91.67;99993.97;1756444;81;21175;-81
2021/01/12 01:58:10;;;;;;;27.75;14.83;;;;;;;-0.17;91.69;99989.81;1756088;80;21620;-80
2021/01/12 02:00:36;;;;;;;28.67;14.25;;;;;;;-0.15;91.71;99981.39;1756213;81;21238;-81
2021/01/12 02:03:23;;;;;;;26.50;14.75;;;;;;;-0.15;91.67;99977.45;1756691;81;22081;-81
2021/01/12 02:05:53;;;;;;;29.67;13.98;;;;;;;-0.16;91.67;99972.68;1756550;80;21175;-81
2021/01/12 02:08:26;;;;;;;26.10;13.93;;;;;;;-0.15;91.68;99978.30;1732436;81;21168;-81
2021/01/12 02:10:55;;;;;;;27.87;13.60;;;;;;;-0.16;91.67;99969.22;1733634;82;21167;-81
2021/01/12 02:13:25;;;;;;;30.57;14.60;;;;;;;-0.17;91.69;99953.13;1761812;80;21210;-81
2021/01/12 02:15:54;;;;;;;30.15;15.63;;;;;;;-0.17;91.66;99953.13;1776804;79;21281;-81
2021/01/12 02:18:21;;;;;;;32.25;15.43;;;;;;;-0.18;91.68;99951.48;1772427;79;21627;-82
2021/01/12 02:20:47;;;;;;;32.83;16.02;;;;;;;-0.20;91.66;99947.65;1793086;78;21157;-81
2021/01/12 02:23:25;;;;;;;27.35;13.80;;;;;;;-0.20;91.66;99945.50;1793138;79;21449;-81
2021/01/12 02:25:52;;;;;;;30.05;14.38;;;;;;;-0.21;91.66;99939.42;1793321;80;21173;-81
2021/01/12 02:28:18;;;;;;;26.33;13.90;;;;;;;-0.20;91.67;99935.02;1792539;78;22034;-81
2021/01/12 02:30:45;;;;;;;25.57;14.10;;;;;;;-0.21;91.66;99930.75;1792971;79;21161;-81
2021/01/12 02:33:12;;;;;;;30.62;15.20;;;;;;;-0.19;91.69;99931.45;1792576;78;21165;-81
2021/01/12 02:35:42;;;;;;;30.60;16.10;;;;;;;-0.19;91.68;99925.75;1793574;78;21134;-81
2021/01/12 02:38:08;;;;;;;25.57;13.75;;;;;;;-0.19;91.69;99917.05;1771272;80;21659;-81
2021/01/12 02:40:35;;;;;;;27.77;13.68;;;;;;;-0.21;91.68;99905.86;1792713;79;21489;-81
2021/01/12 02:43:02;;;;;;;25.92;13.98;;;;;;;-0.22;91.68;99905.49;1793488;78;21767;-81
2021/01/12 02:45:28;;;;;;;27.15;13.40;;;;;;;-0.22;91.69;99908.95;1793615;78;21134;-81
2021/01/12 02:47:58;;;;;;;26.65;13.43;;;;;;;-0.23;91.70;99911.67;1793660;79;21161;-81
2021/01/12 02:50:24;;;;;;;24.90;13.43;;;;;;;-0.23;91.68;99906.43;1793612;78;21153;-81
2021/01/12 02:52:51;;;;;;;30.20;15.58;;;;;;;-0.21;91.68;99901.93;1793810;78;22164;-81
2021/01/12 02:55:18;;;;;;;28.75;14.75;;;;;;;-0.20;91.69;99893.94;1793391;79;21162;-82
2021/01/12 02:57:45;;;;;;;29.82;15.23;;;;;;;-0.18;91.67;99889.44;1793249;78;21173;-81
2021/01/12 03:00:14;;;;;;;26.30;13.28;;;;;;;-0.16;91.69;99888.00;1793509;79;21178;-81
2021/01/12 03:02:40;;;;;;;25.95;13.15;;;;;;;-0.15;91.68;99884.44;1793206;78;21541;-81
2021/01/12 03:05:08;;;;;;;25.08;12.45;;;;;;;-0.14;91.70;99880.38;1793243;78;21254;-81
2021/01/12 03:07:35;;;;;;;24.23;13.30;;;;;;;-0.13;91.68;99875.97;1793240;78;21161;-81
2021/01/12 03:10:03;;;;;;;24.82;13.43;;;;;;;-0.11;91.71;99874.93;1790782;78;21087;-81
2021/01/12 03:12:29;;;;;;;27.73;14.23;;;;;;;-0.10;91.66;99858.70;1787125;79;21154;-81
2021/01/12 03:14:55;;;;;;;25.88;14.33;;;;;;;-0.09;91.69;99859.07;1786861;79;21194;-80
2021/01/12 03:17:23;;;;;;;27.22;14.38;;;;;;;-0.08;91.69;99858.97;1787223;78;21192;-81
2021/01/12 03:19:49;;;;;;;27.27;12.90;;;;;;;-0.06;91.69;99850.97;1786511;79;21158;-81
2021/01/12 03:22:15;;;;;;;25.68;13.30;;;;;;;-0.08;91.68;99836.70;1787158;78;22087;-81
2021/01/12 03:24:42;;;;;;;26.85;13.20;;;;;;;-0.05;91.68;99838.23;1787226;80;21174;-81
2021/01/12 03:27:08;;;;;;;25.88;13.83;;;;;;;-0.06;91.67;99822.98;1787163;80;21166;-81
2021/01/12 03:29:34;;;;;;;22.10;12.75;;;;;;;-0.04;91.66;99815.86;1787210;79;21205;-81
2021/01/12 03:32:01;;;;;;;23.75;12.90;;;;;;;-0.02;91.66;99817.87;1786934;80;21153;-81
2021/01/12 03:34:27;;;;;;;24.10;13.13;;;;;;;0.00;91.67;99805.98;1787329;78;21209;-81
2021/01/12 03:36:53;;;;;;;25.08;13.18;;;;;;;0.01;91.67;99807.62;1786890;80;21107;-81
2021/01/12 03:39:19;;;;;;;22.22;11.43;;;;;;;0.02;91.67;99811.92;1760565;80;21181;-81
2021/01/12 03:41:46;;;;;;;22.15;12.28;;;;;;;0.03;91.66;99805.73;1787083;78;22510;-81
2021/01/12 03:44:12;;;;;;;18.30;10.98;;;;;;;0.04;91.66;99800.83;1787430;79;21166;-81
2021/01/12 03:46:39;;;;;;;21.73;11.70;;;;;;;0.06;91.67;99800.73;1787233;79;21607;-81
2021/01/12 03:49:06;;;;;;;23.18;12.78;;;;;;;0.08;91.68;99793.09;1787124;79;21600;-81
2021/01/12 03:51:33;;;;;;;21.23;12.58;;;;;;;0.10;91.66;99785.97;1787273;80;21622;-81
2021/01/12 03:53:59;;;;;;;17.95;10.82;;;;;;;0.12;91.65;99786.66;1787044;79;21191;-81
2021/01/12 03:56:25;;;;;;;19.62;10.88;;;;;;;0.15;91.69;99779.87;1787083;79;21999;-81
2021/01/12 03:58:51;;;;;;;17.00;10.35;;;;;;;0.18;91.66;99777.00;1787268;80;21921;-81
2021/01/12 04:01:18;;;;;;;19.00;10.90;;;;;;;0.22;91.66;99773.20;1787058;79;21169;-81
2021/01/12 04:03:44;;;;;;;20.88;11.15;;;;;;;0.26;91.64;99765.45;1786676;79;21138;-81
2021/01/12 04:06:15;;;;;;;23.18;12.05;;;;;;;0.31;91.65;99762.01;1787294;79;21575;-81
2021/01/12 04:08:44;;;;;;;21.45;12.33;;;;;;;0.32;91.63;99751.85;1787142;79;21166;-81
2021/01/12 04:11:13;;;;;;;106.30;30.62;;;;;;;0.33;91.64;99747.45;1786967;79;21167;-81
2021/01/12 04:13:40;;;;;;;69.67;26.57;;;;;;;0.33;91.63;99743.04;1786934;78;21175;-81
2021/01/12 04:16:07;;;;;;;72.70;24.05;;;;;;;0.35;91.61;99730.62;1786773;78;21166;-81
2021/01/12 04:18:34;;;;;;;132.20;43.42;;;;;;;0.39;91.63;99723.34;1787178;79;21196;-81
2021/01/12 04:21:00;;;;;;;98.72;35.55;;;;;;;0.41;91.59;99735.41;1787122;79;21592;-81
2021/01/12 04:23:27;;;;;;;156.10;54.70;;;;;;;0.42;91.58;99734.43;1787264;79;21638;-81
2021/01/12 04:25:53;;;;;;;81.63;29.67;;;;;;;0.44;91.56;99737.78;1787045;79;21596;-81
2021/01/12 04:28:20;;;;;;;57.60;23.22;;;;;;;0.43;91.55;99733.48;1787031;80;21122;-80
2021/01/12 04:30:47;;;;;;;28.38;11.90;;;;;;;0.44;91.53;99726.45;1787451;79;21202;-80
2021/01/12 04:33:13;;;;;;;18.55;9.45;;;;;;;0.43;91.51;99718.22;1787073;79;21580;-80
2021/01/12 04:35:39;;;;;;;17.15;9.48;;;;;;;0.44;91.53;99720.73;1787350;79;21170;-80
2021/01/12 04:38:06;;;;;;;18.37;9.73;;;;;;;0.47;91.51;99715.72;1787238;79;21181;-81
2021/01/12 04:43:17;;;;;;;16.85;8.45;;;;;;;0.53;91.47;99714.41;1810783;78;22162;-81
2021/01/12 04:45:43;;;;;;;21.00;8.70;;;;;;;0.48;91.44;99700.34;1796930;79;21111;-81
2021/01/12 04:48:10;;;;;;;38.80;17.52;;;;;;;0.53;91.46;99701.30;1796935;79;22167;-81
2021/01/12 04:50:36;;;;;;;20.02;9.50;;;;;;;0.55;91.44;99705.45;1796930;79;21210;-81
2021/01/12 04:53:02;;;;;;;17.02;9.10;;;;;;;0.57;91.43;99699.59;1796445;79;21103;-81
2021/01/12 04:55:29;;;;;;;15.78;8.40;;;;;;;0.57;91.41;99694.81;1796865;79;21155;-81
2021/01/12 04:57:55;;;;;;;16.65;8.83;;;;;;;0.58;91.39;99689.94;1796883;79;21636;-81
2021/01/12 05:00:29;;;;;;;15.72;9.08;;;;;;;0.59;91.40;99680.64;1797022;79;21210;-81
2021/01/12 05:03:06;;;;;;;14.10;8.23;;;;;;;0.62;91.39;99676.92;1796435;79;21150;-81
2021/01/12 05:05:36;;;;;;;16.65;9.48;;;;;;;0.66;91.38;99673.10;1795270;79;21128;-80
2021/01/12 05:08:05;;;;;;;16.17;8.78;;;;;;;0.66;91.36;99665.23;1795065;80;21211;-80
2021/01/12 05:10:37;;;;;;;20.95;10.30;;;;;;;0.65;91.33;99660.93;1795164;80;21105;-81
2021/01/12 05:13:11;;;;;;;19.70;10.45;;;;;;;0.67;91.29;99666.91;1794543;80;21191;-81
2021/01/12 05:15:39;;;;;;;15.00;8.78;;;;;;;0.68;91.27;99656.73;1794833;80;21150;-81
2021/01/12 05:18:07;;;;;;;13.40;8.48;;;;;;;0.69;91.26;99652.69;1794502;80;21206;-81
2021/01/12 05:20:39;;;;;;;15.78;9.08;;;;;;;0.70;91.24;99645.19;1794891;80;21140;-82
2021/01/12 05:23:12;;;;;;;15.80;9.20;;;;;;;0.73;91.23;99638.37;1792715;78;21223;-81
2021/01/12 05:25:39;;;;;;;18.30;9.23;;;;;;;0.73;91.20;99633.59;1794587;80;21250;-81
2021/01/12 05:28:11;;;;;;;16.25;9.05;;;;;;;0.73;91.17;99629.66;1794512;80;21230;-81
2021/01/12 05:30:37;;;;;;;15.32;8.20;;;;;;;0.72;91.16;99630.61;1794666;80;21178;-81
2021/01/12 05:33:04;;;;;;;12.63;7.50;;;;;;;0.73;91.14;99630.97;1794791;80;21132;-81
2021/01/12 05:35:35;;;;;;;17.55;9.70;;;;;;;0.72;91.13;99627.98;1763176;80;21146;-81
2021/01/12 05:38:07;;;;;;;13.40;7.97;;;;;;;0.72;91.10;99626.67;1795070;80;21219;-81
2021/01/12 05:40:38;;;;;;;16.42;7.80;;;;;;;0.72;91.10;99627.98;1794400;80;21176;-81
2021/01/12 05:43:13;;;;;;;18.15;8.88;;;;;;;0.70;91.07;99624.19;1787770;80;21649;-81
2021/01/12 05:45:42;;;;;;;18.80;9.48;;;;;;;0.68;91.05;99617.38;1785668;80;21148;-81
2021/01/12 05:48:10;;;;;;;16.32;9.53;;;;;;;0.66;91.06;99614.07;1785781;80;21176;-81
2021/01/12 05:50:36;;;;;;;14.03;8.15;;;;;;;0.63;91.07;99603.36;1785914;80;21201;-80
2021/01/12 05:53:14;;;;;;;17.10;8.43;;;;;;;0.61;91.04;99605.73;1785785;80;21720;-81
2021/01/12 05:55:42;;;;;;;11.50;7.35;;;;;;;0.58;91.04;99606.83;1785624;80;21150;-81
2021/01/12 05:58:23;;;;;;;16.97;9.50;;;;;;;0.57;91.04;99601.69;1785683;80;21123;-81
2021/01/12 06:00:49;;;;;;;13.53;8.53;;;;;;;0.55;91.03;99597.91;1753468;80;21136;-81
2021/01/12 06:03:17;;;;;;;14.45;8.20;;;;;;;0.54;91.03;99600.64;1785675;80;21191;-81
2021/01/12 06:05:45;;;;;;;18.23;8.93;;;;;;;0.53;91.02;99593.75;1785562;79;21116;-81
2021/01/12 06:08:16;;;;;;;17.62;8.98;;;;;;;0.52;91.01;99597.33;1785866;80;21148;-81
2021/01/12 06:10:45;;;;;;;16.85;8.60;;;;;;;0.50;91.01;99599.58;1785705;80;21179;-81
2021/01/12 06:13:14;;;;;;;14.65;7.65;;;;;;;0.50;91.00;99598.27;1785926;80;21140;-81
2021/01/12 06:15:42;;;;;;;14.73;8.50;;;;;;;0.50;91.00;99599.58;1785499;80;22113;-81
2021/01/12 06:18:16;;;;;;;12.78;8.05;;;;;;;0.50;91.00;99598.27;1785362;80;21176;-82
2021/01/12 06:21:09;;;;;;;14.98;8.38;;;;;;;0.54;90.99;99591.45;1784890;79;21183;-81
2021/01/12 06:23:56;;;;;;;18.02;9.35;;;;;;;0.56;91.01;99588.25;1784994;80;21250;-81
2021/01/12 06:26:22;;;;;;;26.90;13.50;;;;;;;0.57;91.02;99590.72;1785918;80;21211;-81
2021/01/12 06:28:49;;;;;;;17.75;8.95;;;;;;;0.58;91.01;99583.69;1786398;80;21207;-81
2021/01/12 06:31:15;;;;;;;17.02;9.60;;;;;;;0.60;91.04;99583.11;1730295;80;21203;-82
2021/01/12 06:33:41;;;;;;;15.13;8.65;;;;;;;0.63;91.01;99584.16;1748472;82;21658;-82
2021/01/12 06:36:08;;;;;;;15.00;8.13;;;;;;;0.65;91.02;99579.61;1786322;80;21166;-82
2021/01/12 06:38:37;;;;;;;13.28;8.25;;;;;;;0.66;91.04;99576.03;1730930;80;21184;-81
2021/01/12 06:41:07;;;;;;;15.18;8.40;;;;;;;0.66;91.03;99578.66;1786497;80;21260;-81
2021/01/12 06:43:34;;;;;;;17.37;8.68;;;;;;;0.68;91.03;99577.55;1786120;80;21592;-81
2021/01/12 06:46:00;;;;;;;15.00;8.75;;;;;;;0.67;91.03;99577.20;1748875;82;21169;-81
2021/01/12 06:48:32;;;;;;;16.60;8.33;;;;;;;0.67;91.02;99569.33;1786413;80;21625;-81
2021/01/12 06:51:03;;;;;;;17.82;8.90;;;;;;;0.66;91.03;99570.31;1786102;80;21127;-81
2021/01/12 06:53:29;;;;;;;17.15;8.55;;;;;;;0.67;91.02;99571.14;1746498;80;21265;-81
2021/01/12 06:56:06;;;;;;;17.20;9.20;;;;;;;0.66;91.03;99560.29;1786597;80;21202;-81
2021/01/12 06:58:32;;;;;;;19.12;10.30;;;;;;;0.62;90.99;99556.25;1749022;82;21172;-81
2021/01/12 07:01:00;;;;;;;20.15;9.33;;;;;;;0.57;90.97;99550.54;1786316;80;21183;-81
2021/01/12 07:03:31;;;;;;;16.55;8.60;;;;;;;0.55;90.94;99557.72;1749042;82;21148;-81
2021/01/12 07:06:02;;;;;;;20.82;9.30;;;;;;;0.50;90.91;99560.24;1786520;79;22136;-81
2021/01/12 07:08:29;;;;;;;16.77;9.70;;;;;;;0.47;90.87;99555.73;1749076;82;21195;-81
2021/01/12 07:11:03;;;;;;;25.10;11.15;;;;;;;0.41;90.86;99540.51;1785731;80;21169;-80
2021/01/12 07:13:39;;;;;;;21.25;10.65;;;;;;;0.36;90.82;99548.74;1757837;80;21228;-80
2021/01/12 07:16:15;;;;;;;18.70;10.48;;;;;;;0.31;90.79;99544.84;1748972;82;21200;-81
2021/01/12 07:18:43;;;;;;;21.95;10.80;;;;;;;0.24;90.75;99555.02;1786204;80;21248;-81
2021/01/12 07:21:14;;;;;;;16.95;10.03;;;;;;;0.17;90.76;99555.16;1786432;80;21128;-81
2021/01/12 07:23:41;;;;;;;24.37;12.37;;;;;;;0.16;90.73;99553.96;1786491;80;21104;-82
2021/01/12 07:26:09;;;;;;;24.25;13.25;;;;;;;0.13;90.74;99546.34;1786670;80;21164;-81
2021/01/12 07:28:44;;;;;;;30.88;16.07;;;;;;;0.08;90.73;99548.02;1748814;82;21129;-81
2021/01/12 07:31:10;;;;;;;23.70;12.78;;;;;;;0.04;90.74;99549.23;1786288;80;22286;-81
2021/01/12 07:33:39;;;;;;;27.77;15.00;;;;;;;-0.01;90.73;99544.85;1786070;80;21187;-81
2021/01/12 07:36:06;;;;;;;21.95;11.53;;;;;;;-0.02;90.75;99548.42;1756375;80;21203;-81
2021/01/12 07:38:32;;;;;;;20.55;12.50;;;;;;;-0.06;90.72;99541.76;1786411;80;21632;-81
2021/01/12 07:41:03;;;;;;;19.67;10.23;;;;;;;-0.07;90.77;99537.50;1786458;80;21144;-81
2021/01/12 07:43:31;;;;;;;22.20;11.15;;;;;;;-0.10;90.78;99539.02;1771938;80;21268;-81
2021/01/12 07:45:57;;;;;;;28.27;15.35;;;;;;;-0.13;90.77;99532.73;1765582;81;21164;-80
2021/01/12 07:48:24;;;;;;;58.87;27.22;;;;;;;-0.16;90.79;99531.67;1765715;80;21163;-81
2021/01/12 07:50:52;;;;;;;26.00;14.58;;;;;;;-0.21;90.80;99529.91;1765856;80;21553;-81
2021/01/12 07:53:20;;;;;;;28.52;14.20;;;;;;;-0.23;90.81;99531.80;1765091;80;21191;-81
2021/01/12 07:55:48;;;;;;;26.60;16.97;;;;;;;-0.24;90.85;99515.72;1765873;81;22627;-80
2021/01/12 07:58:17;;;;;;;31.07;17.23;;;;;;;-0.26;90.85;99517.65;1765790;80;21143;-81
2021/01/12 08:00:47;;;;;;;37.35;23.75;;;;;;;-0.27;90.89;99522.52;1766062;81;21200;-81
2021/01/12 08:03:12;;;;;;;19.77;12.82;;;;;;;-0.27;90.89;99514.66;1765800;80;21175;-81
2021/01/12 08:05:39;;;;;;;23.00;14.33;;;;;;;-0.28;90.92;99512.52;1748507;81;21139;-81
2021/01/12 08:08:08;;;;;;;30.40;21.00;;;;;;;-0.29;90.92;99508.73;1765796;80;22055;-81
2021/01/12 08:10:41;;;;;;;23.62;15.98;;;;;;;-0.30;90.94;99498.73;1765676;80;21203;-80
2021/01/12 08:13:10;;;;;;;23.38;12.95;;;;;;;-0.31;90.97;99500.98;1765803;80;21152;-81
2021/01/12 08:15:43;;;;;;;22.13;12.45;;;;;;;-0.32;90.99;99499.34;1766090;81;21194;-81
2021/01/12 08:18:18;;;;;;;28.70;12.18;;;;;;;-0.32;91.01;99499.34;1765997;81;21155;-81
2021/01/12 08:20:45;;;;;;;22.75;13.50;;;;;;;-0.31;91.04;99497.53;1765933;81;21612;-82
2021/01/12 08:23:17;;;;;;;22.25;11.78;;;;;;;-0.29;91.03;99496.95;1765516;80;21199;-82
2021/01/12 08:25:43;;;;;;;23.15;12.70;;;;;;;-0.27;91.07;99491.09;1748097;81;21151;-81
2021/01/12 08:28:10;;;;;;;23.10;14.23;;;;;;;-0.26;91.08;99487.52;1765748;81;21180;-81
2021/01/12 08:30:38;;;;;;;29.20;16.37;;;;;;;-0.26;91.12;99484.91;1766081;81;21203;-81
2021/01/12 08:33:24;;;;;;;27.37;16.40;;;;;;;-0.24;91.13;99481.67;1764772;81;21203;-81
2021/01/12 08:35:54;;;;;;;27.42;13.13;;;;;;;-0.21;91.13;99480.14;1765865;80;21505;-81
2021/01/12 08:38:22;;;;;;;31.25;15.05;;;;;;;-0.21;91.16;99475.70;1765544;80;21144;-81
2021/01/12 08:40:49;;;;;;;24.63;13.53;;;;;;;-0.21;91.18;99469.16;1765866;81;21147;-81
2021/01/12 08:43:18;;;;;;;25.50;11.88;;;;;;;-0.22;91.23;99463.58;1765799;80;21148;-81
2021/01/12 08:45:45;;;;;;;23.30;12.13;;;;;;;-0.22;91.25;99471.92;1765515;80;23385;-81
2021/01/12 08:48:15;;;;;;;24.00;12.15;;;;;;;-0.16;91.27;99476.65;1766046;80;21648;-82
2021/01/12 08:50:43;;;;;;;15.68;9.35;;;;;;;-0.13;91.29;99477.23;1765932;81;21151;-81
2021/01/12 08:53:09;;;;;;;19.60;11.12;;;;;;;-0.10;91.30;99469.59;1765692;81;21207;-81
2021/01/12 08:55:36;;;;;;;25.23;13.98;;;;;;;-0.07;91.33;99465.44;1765885;81;21140;-81
2021/01/12 08:58:08;;;;;;;19.92;12.23;;;;;;;-0.05;91.35;99466.13;1765871;81;21191;-82
2021/01/12 09:00:37;;;;;;;24.52;14.15;;;;;;;0.04;91.36;99464.05;1765766;81;21214;-81
2021/01/12 09:03:05;;;;;;;24.85;12.95;;;;;;;0.10;91.38;99462.73;1778570;80;21131;-81
2021/01/12 09:05:37;;;;;;;21.57;12.15;;;;;;;0.17;91.41;99459.48;1779185;79;21236;-81
2021/01/12 09:08:08;;;;;;;23.73;13.13;;;;;;;0.22;91.42;99453.83;1783429;80;21128;-81
2021/01/12 09:10:38;;;;;;;22.52;11.70;;;;;;;0.24;91.42;99449.31;1782393;80;21203;-81
2021/01/12 09:13:05;;;;;;;22.30;12.37;;;;;;;0.24;91.48;99448.84;1776353;80;21640;-82
2021/01/12 09:15:37;;;;;;;22.50;12.53;;;;;;;0.21;91.49;99455.62;1779487;80;21168;-81
2021/01/12 09:18:23;;;;;;;27.80;15.20;;;;;;;0.23;91.52;99443.23;1817885;77;22757;-83
2021/01/12 09:21:08;;;;;;;31.15;18.98;;;;;;;0.16;91.53;99446.48;1764562;81;21193;-83
2021/01/12 09:23:36;;;;;;;29.65;15.30;;;;;;;0.15;91.55;99447.44;1818255;78;21993;-83
2021/01/12 09:26:03;;;;;;;27.42;14.68;;;;;;;0.17;91.55;99445.53;1827418;78;22215;-82
2021/01/12 09:28:35;;;;;;;26.70;13.85;;;;;;;0.22;91.57;99440.73;1793761;79;21596;-82
2021/01/12 09:31:13;;;;;;;22.85;12.05;;;;;;;0.23;91.62;99441.92;1768082;79;21619;-83
2021/01/12 09:33:47;;;;;;;23.80;11.53;;;;;;;0.26;91.62;99433.80;1764242;81;21167;-82
2021/01/12 09:36:15;;;;;;;22.67;11.95;;;;;;;0.32;91.65;99429.34;1795337;78;21315;-82
2021/01/12 09:38:48;;;;;;;22.35;11.95;;;;;;;0.41;91.67;99427.75;1795109;79;21199;-80
2021/01/12 09:41:16;;;;;;;21.30;11.78;;;;;;;0.49;91.70;99427.43;1795119;79;21167;-82
2021/01/12 09:43:42;;;;;;;28.27;13.70;;;;;;;0.50;91.70;99419.09;1794661;79;21179;-82
2021/01/12 09:46:09;;;;;;;20.85;12.53;;;;;;;0.52;91.70;99416.34;1795063;79;21119;-81
2021/01/12 09:48:37;;;;;;;25.57;14.40;;;;;;;0.52;91.74;99412.41;1788521;79;21201;-81
2021/01/12 09:51:04;;;;;;;19.50;12.03;;;;;;;0.49;91.77;99413.00;1795981;79;21140;-82
2021/01/12 09:53:30;;;;;;;33.15;23.95;;;;;;;0.49;91.75;99402.52;1795648;79;21152;-82
2021/01/12 09:55:57;;;;;;;22.65;13.15;;;;;;;0.52;91.76;99409.79;1795854;79;21627;-81
2021/01/12 09:58:24;;;;;;;25.90;14.63;;;;;;;0.53;91.78;99407.52;1795812;79;21115;-82
2021/01/12 10:00:51;;;;;;;30.72;16.48;;;;;;;0.52;91.82;99403.23;1795859;79;21197;-81
2021/01/12 10:03:18;;;;;;;32.67;18.30;;;;;;;0.53;91.81;99393.91;1795675;79;21620;-81
2021/01/12 10:05:44;;;;;;;34.80;16.48;;;;;;;0.51;91.81;99384.03;1795721;79;21147;-81
2021/01/12 10:08:11;;;;;;;38.15;18.50;;;;;;;0.50;91.82;99388.45;1796087;79;21180;-81
2021/01/12 10:10:37;;;;;;;22.65;13.60;;;;;;;0.48;91.80;99381.69;1801396;78;21567;-81
2021/01/12 10:13:04;;;;;;;24.65;13.28;;;;;;;0.48;91.82;99375.96;1798637;78;21198;-81
2021/01/12 10:15:30;;;;;;;27.67;14.38;;;;;;;0.45;91.83;99376.23;1763656;81;21553;-81
2021/01/12 10:17:57;;;;;;;24.57;13.15;;;;;;;0.47;91.83;99370.36;1750925;81;21239;-80
2021/01/12 10:20:23;;;;;;;26.45;14.15;;;;;;;0.51;91.86;99365.68;1758037;80;21124;-81
2021/01/12 10:22:49;;;;;;;27.93;15.38;;;;;;;0.49;91.87;99371.05;1766710;81;21195;-81
2021/01/12 10:25:16;;;;;;;29.75;15.50;;;;;;;0.52;91.87;99369.14;1767066;80;21268;-82
2021/01/12 10:27:45;;;;;;;26.93;15.20;;;;;;;0.48;91.89;99361.53;1780098;80;21187;-78
2021/01/12 10:30:14;;;;;;;35.17;18.02;;;;;;;0.44;91.89;99357.52;1786142;80;21187;-78
2021/01/12 10:32:41;;;;;;;37.38;20.00;;;;;;;0.43;91.90;99359.77;1754267;81;21188;-78
2021/01/12 10:35:09;;;;;;;48.55;22.27;;;;;;;0.41;91.90;99351.22;1770065;80;21210;-73
2021/01/12 10:37:35;;;;;;;20.90;12.25;;;;;;;0.43;91.92;99353.22;1759970;81;21213;-73
2021/01/12 10:40:02;;;;;;;41.10;22.20;;;;;;;0.42;91.93;99352.86;1772929;80;21224;-73
2021/01/12 10:42:29;;;;;;;29.18;17.67;;;;;;;0.47;91.96;99345.92;1775708;80;21174;-73
2021/01/12 10:44:55;;;;;;;37.53;21.52;;;;;;;0.47;91.97;99340.20;1789682;80;21175;-73
2021/01/12 10:47:22;;;;;;;26.75;17.35;;;;;;;0.46;92.00;99337.22;1768483;81;21175;-73
2021/01/12 10:49:48;;;;;;;23.85;13.93;;;;;;;0.47;91.97;99329.70;1790178;80;22147;-74
2021/01/12 10:52:15;;;;;;;24.32;15.13;;;;;;;0.45;91.99;99326.41;1753017;81;21186;-74
2021/01/12 10:54:44;;;;;;;25.75;13.18;;;;;;;0.45;91.99;99323.78;1791202;80;21140;-72
2021/01/12 10:57:09;;;;;;;24.95;13.38;;;;;;;0.48;91.99;99326.13;1774999;80;21142;-72
2021/01/12 10:59:36;;;;;;;24.98;13.20;;;;;;;0.47;92.00;99313.97;1770233;80;21123;-72
2021/01/12 11:02:15;;;;;;;;;;;;;;;;;;;;;
2021/01/12 11:04:45;;;;;;;42.70;21.55;;;;;;;0.50;92.04;99303.21;1836315;77;22769;-73
2021/01/12 11:07:11;;;;;;;141.25;57.15;;;;;;;0.46;92.05;99295.26;1806290;78;21610;-73
2021/01/12 11:09:40;;;;;;;64.72;34.50;;;;;;;0.42;92.08;99295.17;1801715;78;21191;-73
2021/01/12 11:12:09;;;;;;;44.73;28.07;;;;;;;0.43;92.06;99292.07;1803359;78;21627;-73
2021/01/12 11:14:35;;;;;;;37.38;19.30;;;;;;;0.43;92.06;99282.42;1801913;78;21136;-73
2021/01/12 11:17:01;;;;;;;27.67;16.07;;;;;;;0.43;92.10;99278.48;1807610;78;21596;-73
2021/01/12 11:19:28;;;;;;;37.60;21.37;;;;;;;0.43;92.09;99281.11;1806655;78;21151;-73
2021/01/12 11:21:55;;;;;;;110.12;54.90;;;;;;;0.43;92.10;99274.55;1803673;78;21628;-73
2021/01/12 11:24:24;;;;;;;71.10;34.05;;;;;;;0.42;92.12;99275.50;1805809;78;21163;-73
2021/01/12 11:26:52;;;;;;;35.73;20.00;;;;;;;0.45;92.16;99270.02;1805864;78;21119;-73
2021/01/12 11:29:20;;;;;;;37.40;20.05;;;;;;;0.45;92.16;99264.77;1799529;78;21636;-73
2021/01/12 11:31:46;;;;;;;92.35;35.52;;;;;;;0.45;92.17;99255.59;1804051;78;21172;-72